sensor_id;sensor_type;location;lat;lon;timestamp;pressure;altitude;pressure_sealevel;temperature;humidity
70902;BME280;58548;47.210;8.618;2023-04-06T00:00:50;94255.31;;;8.63;29.81
70902;BME280;58548;47.210;8.618;2023-04-06T00:03:17;94156.81;;;7.96;30.33
70902;BME280;58548;47.210;8.618;2023-04-06T00:05:47;94278.84;;;8.69;30.44
70902;BME280;58548;47.210;8.618;2023-04-06T00:08:16;94140.78;;;7.84;30.13
70902;BME280;58548;47.210;8.618;2023-04-06T00:10:42;94261.81;;;8.67;29.79
70902;BME280;58548;47.210;8.618;2023-04-06T00:13:08;94171.03;;;8.09;29.74
70902;BME280;58548;47.210;8.618;2023-04-06T00:15:34;94190.00;;;8.18;30.09
70902;BME280;58548;47.210;8.618;2023-04-06T00:18:02;94250.16;;;8.54;29.52
70902;BME280;58548;47.210;8.618;2023-04-06T00:20:28;94230.50;;;8.43;29.82
70902;BME280;58548;47.210;8.618;2023-04-06T00:22:56;94214.09;;;8.43;29.96
70902;BME280;58548;47.210;8.618;2023-04-06T00:25:26;94254.38;;;8.55;30.41
70902;BME280;58548;47.210;8.618;2023-04-06T00:27:52;94191.47;;;8.20;29.81
70902;BME280;58548;47.210;8.618;2023-04-06T00:30:18;94256.00;;;8.56;29.96
70902;BME280;58548;47.210;8.618;2023-04-06T00:32:47;94144.47;;;7.90;30.39
70902;BME280;58548;47.210;8.618;2023-04-06T00:35:12;94214.13;;;8.35;29.60
70902;BME280;58548;47.210;8.618;2023-04-06T00:37:41;94111.19;;;7.62;29.58
70902;BME280;58548;47.210;8.618;2023-04-06T00:40:10;94130.28;;;7.69;29.92
70902;BME280;58548;47.210;8.618;2023-04-06T00:42:36;94241.59;;;8.37;29.65
70902;BME280;58548;47.210;8.618;2023-04-06T00:45:02;94243.72;;;8.34;29.61
70902;BME280;58548;47.210;8.618;2023-04-06T00:47:28;94228.53;;;8.22;29.38
70902;BME280;58548;47.210;8.618;2023-04-06T00:49:57;94221.09;;;8.11;29.45
70902;BME280;58548;47.210;8.618;2023-04-06T00:52:23;94217.06;;;8.08;29.73
70902;BME280;58548;47.210;8.618;2023-04-06T00:54:49;94132.00;;;7.54;29.83
70902;BME280;58548;47.210;8.618;2023-04-06T00:57:16;94238.94;;;8.22;30.19
70902;BME280;58548;47.210;8.618;2023-04-06T00:59:43;94188.00;;;7.96;30.53
70902;BME280;58548;47.210;8.618;2023-04-06T01:02:10;94218.34;;;8.12;30.24
70902;BME280;58548;47.210;8.618;2023-04-06T01:04:38;94097.78;;;7.42;30.61
70902;BME280;58548;47.210;8.618;2023-04-06T01:07:07;94071.75;;;7.19;29.99
70902;BME280;58548;47.210;8.618;2023-04-06T01:09:33;94230.41;;;8.28;30.17
70902;BME280;58548;47.210;8.618;2023-04-06T01:11:59;94117.19;;;7.54;30.30
70902;BME280;58548;47.210;8.618;2023-04-06T01:14:30;94100.50;;;7.49;30.42
70902;BME280;58548;47.210;8.618;2023-04-06T01:16:59;94187.97;;;8.05;29.78
70902;BME280;58548;47.210;8.618;2023-04-06T01:19:28;94108.75;;;7.52;29.35
70902;BME280;58548;47.210;8.618;2023-04-06T01:21:54;94182.34;;;7.93;29.37
70902;BME280;58548;47.210;8.618;2023-04-06T01:24:23;94214.25;;;8.10;29.91
70902;BME280;58548;47.210;8.618;2023-04-06T01:26:53;94213.94;;;8.13;29.98
70902;BME280;58548;47.210;8.618;2023-04-06T01:29:19;94105.41;;;7.44;29.78
70902;BME280;58548;47.210;8.618;2023-04-06T01:31:45;94218.16;;;8.14;29.67
70902;BME280;58548;47.210;8.618;2023-04-06T01:34:16;94199.69;;;8.00;30.39
70902;BME280;58548;47.210;8.618;2023-04-06T01:36:44;94074.63;;;7.24;30.29
70902;BME280;58548;47.210;8.618;2023-04-06T01:39:13;94184.78;;;7.94;30.14
70902;BME280;58548;47.210;8.618;2023-04-06T01:41:39;94179.59;;;7.86;29.83
70902;BME280;58548;47.210;8.618;2023-04-06T01:44:05;94114.81;;;7.45;29.78
70902;BME280;58548;47.210;8.618;2023-04-06T01:46:33;94135.25;;;7.56;30.08
70902;BME280;58548;47.210;8.618;2023-04-06T01:48:59;94090.53;;;7.29;30.28
70902;BME280;58548;47.210;8.618;2023-04-06T01:51:27;94060.09;;;7.06;30.20
70902;BME280;58548;47.210;8.618;2023-04-06T01:53:58;94134.09;;;7.59;30.61
70902;BME280;58548;47.210;8.618;2023-04-06T01:56:26;94202.94;;;8.03;30.47
70902;BME280;58548;47.210;8.618;2023-04-06T01:58:54;94105.41;;;7.44;30.24
70902;BME280;58548;47.210;8.618;2023-04-06T02:01:23;94194.97;;;8.04;30.30
70902;BME280;58548;47.210;8.618;2023-04-06T02:03:52;94196.59;;;8.05;30.27
70902;BME280;58548;47.210;8.618;2023-04-06T02:06:18;94057.81;;;7.12;30.35
70902;BME280;58548;47.210;8.618;2023-04-06T02:08:48;94197.75;;;8.03;30.42
70902;BME280;58548;47.210;8.618;2023-04-06T02:11:14;94085.19;;;7.31;30.60
70902;BME280;58548;47.210;8.618;2023-04-06T02:13:40;94095.56;;;7.31;30.06
70902;BME280;58548;47.210;8.618;2023-04-06T02:16:08;94067.56;;;7.09;29.97
70902;BME280;58548;47.210;8.618;2023-04-06T02:18:34;94079.38;;;7.20;30.38
70902;BME280;58548;47.210;8.618;2023-04-06T02:21:05;94075.66;;;7.15;30.48
70902;BME280;58548;47.210;8.618;2023-04-06T02:23:30;94199.09;;;7.90;30.35
70902;BME280;58548;47.210;8.618;2023-04-06T02:25:59;94191.97;;;7.84;30.25
70902;BME280;58548;47.210;8.618;2023-04-06T02:28:29;94199.59;;;7.85;30.54
70902;BME280;58548;47.210;8.618;2023-04-06T02:30:55;94192.13;;;7.82;31.02
70902;BME280;58548;47.210;8.618;2023-04-06T02:33:23;94204.16;;;7.83;31.04
70902;BME280;58548;47.210;8.618;2023-04-06T02:35:54;94076.34;;;7.00;31.08
70902;BME280;58548;47.210;8.618;2023-04-06T02:38:25;94132.41;;;7.34;31.22
70902;BME280;58548;47.210;8.618;2023-04-06T02:40:51;94109.09;;;7.18;31.21
70902;BME280;58548;47.210;8.618;2023-04-06T02:43:17;94056.91;;;6.88;30.66
70902;BME280;58548;47.210;8.618;2023-04-06T02:45:45;94198.38;;;7.73;30.98
70902;BME280;58548;47.210;8.618;2023-04-06T02:48:11;94170.81;;;7.55;31.35
70902;BME280;58548;47.210;8.618;2023-04-06T02:50:37;94058.53;;;6.89;31.18
70902;BME280;58548;47.210;8.618;2023-04-06T02:53:05;94098.06;;;7.16;31.67
70902;BME280;58548;47.210;8.618;2023-04-06T02:55:31;94165.75;;;7.62;31.26
70902;BME280;58548;47.210;8.618;2023-04-06T02:57:59;94087.66;;;7.16;31.49
70902;BME280;58548;47.210;8.618;2023-04-06T03:00:28;94056.25;;;6.94;31.14
70902;BME280;58548;47.210;8.618;2023-04-06T03:02:56;94179.16;;;7.74;31.18
70902;BME280;58548;47.210;8.618;2023-04-06T03:05:22;94189.56;;;7.74;30.92
70902;BME280;58548;47.210;8.618;2023-04-06T03:07:50;94185.53;;;7.72;31.13
70902;BME280;58548;47.210;8.618;2023-04-06T03:10:20;94068.91;;;6.97;30.81
70902;BME280;58548;47.210;8.618;2023-04-06T03:12:48;94196.25;;;7.68;31.11
70902;BME280;58548;47.210;8.618;2023-04-06T03:15:16;94062.75;;;6.90;30.96
70902;BME280;58548;47.210;8.618;2023-04-06T03:17:45;94185.53;;;7.72;31.18
70902;BME280;58548;47.210;8.618;2023-04-06T03:20:11;94173.19;;;7.65;31.21
70902;BME280;58548;47.210;8.618;2023-04-06T03:22:37;94048.19;;;6.81;30.97
70902;BME280;58548;47.210;8.618;2023-04-06T03:25:05;94042.84;;;6.74;30.98
70902;BME280;58548;47.210;8.618;2023-04-06T03:27:31;94167.44;;;7.47;30.76
70902;BME280;58548;47.210;8.618;2023-04-06T03:29:58;94097.44;;;7.05;31.04
70902;BME280;58548;47.210;8.618;2023-04-06T03:32:26;94163.53;;;7.43;31.23
70902;BME280;58548;47.210;8.618;2023-04-06T03:34:52;94072.31;;;6.89;31.62
70902;BME280;58548;47.210;8.618;2023-04-06T03:37:17;94149.63;;;7.35;31.11
70902;BME280;58548;47.210;8.618;2023-04-06T03:39:48;94155.13;;;7.41;31.34
70902;BME280;58548;47.210;8.618;2023-04-06T03:42:14;94187.03;;;7.58;31.46
70902;BME280;58548;47.210;8.618;2023-04-06T03:44:40;94186.06;;;7.59;31.69
70902;BME280;58548;47.210;8.618;2023-04-06T03:47:08;94088.38;;;6.93;31.84
70902;BME280;58548;47.210;8.618;2023-04-06T03:49:36;94189.50;;;7.59;31.71
70902;BME280;58548;47.210;8.618;2023-04-06T03:52:02;94073.66;;;6.85;31.60
70902;BME280;58548;47.210;8.618;2023-04-06T03:54:28;94174.09;;;7.41;31.34
70902;BME280;58548;47.210;8.618;2023-04-06T03:56:56;94196.00;;;7.55;31.43
70902;BME280;58548;47.210;8.618;2023-04-06T03:59:25;94192.47;;;7.39;31.71
70902;BME280;58548;47.210;8.618;2023-04-06T04:01:51;94196.34;;;7.44;31.33
70902;BME280;58548;47.210;8.618;2023-04-06T04:04:19;94162.16;;;7.23;31.87
70902;BME280;58548;47.210;8.618;2023-04-06T04:06:45;94192.81;;;7.36;31.74
70902;BME280;58548;47.210;8.618;2023-04-06T04:09:13;94184.38;;;7.34;31.88
70902;BME280;58548;47.210;8.618;2023-04-06T04:11:41;94186.13;;;7.34;32.02
70902;BME280;58548;47.210;8.618;2023-04-06T04:14:07;93967.13;;;5.97;31.55
70902;BME280;58548;47.210;8.618;2023-04-06T04:16:38;94076.78;;;6.64;31.62
70902;BME280;58548;47.210;8.618;2023-04-06T04:19:05;94112.25;;;6.88;32.12
70902;BME280;58548;47.210;8.618;2023-04-06T04:21:31;94066.41;;;6.56;32.01
70902;BME280;58548;47.210;8.618;2023-04-06T04:23:59;94088.44;;;6.68;31.53
70902;BME280;58548;47.210;8.618;2023-04-06T04:26:28;94087.47;;;6.69;32.01
70902;BME280;58548;47.210;8.618;2023-04-06T04:28:58;94072.88;;;6.60;32.03
70902;BME280;58548;47.210;8.618;2023-04-06T04:31:27;94163.63;;;7.18;32.01
70902;BME280;58548;47.210;8.618;2023-04-06T04:33:53;94200.88;;;7.42;31.98
70902;BME280;58548;47.210;8.618;2023-04-06T04:36:18;94098.31;;;6.81;32.08
70902;BME280;58548;47.210;8.618;2023-04-06T04:38:44;94204.63;;;7.47;32.09
70902;BME280;58548;47.210;8.618;2023-04-06T04:41:12;94097.34;;;6.82;31.84
70902;BME280;58548;47.210;8.618;2023-04-06T04:43:38;94209.00;;;7.47;31.55
70902;BME280;58548;47.210;8.618;2023-04-06T04:46:06;94209.81;;;7.47;31.73
70902;BME280;58548;47.210;8.618;2023-04-06T04:48:32;94202.22;;;7.37;32.02
70902;BME280;58548;47.210;8.618;2023-04-06T04:50:58;94003.22;;;6.15;32.17
70902;BME280;58548;47.210;8.618;2023-04-06T04:53:26;94174.50;;;7.21;32.30
70902;BME280;58548;47.210;8.618;2023-04-06T04:55:57;94188.59;;;7.27;31.89
70902;BME280;58548;47.210;8.618;2023-04-06T04:58:22;94230.13;;;7.44;31.67
70902;BME280;58548;47.210;8.618;2023-04-06T05:00:48;94216.47;;;7.42;32.07
70902;BME280;58548;47.210;8.618;2023-04-06T05:03:23;94220.41;;;7.37;31.99
70902;BME280;58548;47.210;8.618;2023-04-06T05:05:49;94210.34;;;7.34;31.59
70902;BME280;58548;47.210;8.618;2023-04-06T05:08:16;94217.16;;;7.35;31.46
70902;BME280;58548;47.210;8.618;2023-04-06T05:10:44;94090.75;;;6.55;31.38
70902;BME280;58548;47.210;8.618;2023-04-06T05:13:16;94229.47;;;7.42;31.84
70902;BME280;58548;47.210;8.618;2023-04-06T05:15:42;94222.31;;;7.44;32.16
70902;BME280;58548;47.210;8.618;2023-04-06T05:18:13;94139.03;;;6.89;32.34
70902;BME280;58548;47.210;8.618;2023-04-06T05:20:42;94176.63;;;7.18;32.63
70902;BME280;58548;47.210;8.618;2023-04-06T05:23:08;94147.75;;;7.04;32.27
70902;BME280;58548;47.210;8.618;2023-04-06T05:25:34;94081.81;;;6.66;32.35
70902;BME280;58548;47.210;8.618;2023-04-06T05:28:00;94090.34;;;6.83;32.40
70902;BME280;58548;47.210;8.618;2023-04-06T05:30:26;94230.69;;;7.70;32.19
70902;BME280;58548;47.210;8.618;2023-04-06T05:32:52;94226.78;;;7.75;31.98
70902;BME280;58548;47.210;8.618;2023-04-06T05:35:21;94242.06;;;7.78;31.75
70902;BME280;58548;47.210;8.618;2023-04-06T05:37:49;94109.81;;;6.95;31.73
70902;BME280;58548;47.210;8.618;2023-04-06T05:40:16;94214.50;;;7.60;31.96
70902;BME280;58548;47.210;8.618;2023-04-06T05:42:42;94232.50;;;7.70;31.91
70902;BME280;58548;47.210;8.618;2023-04-06T05:45:12;94126.63;;;7.07;31.28
70902;BME280;58548;47.210;8.618;2023-04-06T05:47:42;94236.84;;;7.78;31.75
70902;BME280;58548;47.210;8.618;2023-04-06T05:50:11;94233.22;;;7.87;31.34
70902;BME280;58548;47.210;8.618;2023-04-06T05:52:37;94189.94;;;7.71;31.59
70902;BME280;58548;47.210;8.618;2023-04-06T05:55:03;94236.38;;;8.06;31.61
70902;BME280;58548;47.210;8.618;2023-04-06T05:57:32;94249.97;;;8.24;31.96
70902;BME280;58548;47.210;8.618;2023-04-06T06:00:03;94249.13;;;8.32;31.92
70902;BME280;58548;47.210;8.618;2023-04-06T06:02:31;94251.81;;;8.47;32.08
70902;BME280;58548;47.210;8.618;2023-04-06T06:05:02;94179.81;;;8.08;31.71
70902;BME280;58548;47.210;8.618;2023-04-06T06:07:33;94217.66;;;8.42;31.85
70902;BME280;58548;47.210;8.618;2023-04-06T06:10:01;94166.78;;;8.16;31.50
70902;BME280;58548;47.210;8.618;2023-04-06T06:12:30;94136.22;;;8.10;31.50
70902;BME280;58548;47.210;8.618;2023-04-06T06:14:58;94147.34;;;8.27;31.50
70902;BME280;58548;47.210;8.618;2023-04-06T06:17:27;94260.50;;;9.09;31.08
70902;BME280;58548;47.210;8.618;2023-04-06T06:19:55;94238.03;;;9.08;31.51
70902;BME280;58548;47.210;8.618;2023-04-06T06:22:23;94220.06;;;9.13;31.38
70902;BME280;58548;47.210;8.618;2023-04-06T06:24:52;94167.56;;;8.86;31.13
70902;BME280;58548;47.210;8.618;2023-04-06T06:27:20;94199.44;;;9.27;30.83
70902;BME280;58548;47.210;8.618;2023-04-06T06:29:46;94168.78;;;9.29;30.58
70902;BME280;58548;47.210;8.618;2023-04-06T06:32:14;94280.88;;;10.19;30.92
70902;BME280;58548;47.210;8.618;2023-04-06T06:34:42;94157.75;;;9.93;30.31
70902;BME280;58548;47.210;8.618;2023-04-06T06:37:11;94118.69;;;10.22;30.77
70902;BME280;58548;47.210;8.618;2023-04-06T06:39:36;94160.19;;;11.04;29.79
70902;BME280;58548;47.210;8.618;2023-04-06T06:42:05;94180.00;;;11.90;29.47
70902;BME280;58548;47.210;8.618;2023-04-06T06:44:31;94263.94;;;13.12;29.28
70902;BME280;58548;47.210;8.618;2023-04-06T06:46:56;94214.72;;;13.55;28.44
70902;BME280;58548;47.210;8.618;2023-04-06T06:49:22;94236.66;;;14.46;27.83
70902;BME280;58548;47.210;8.618;2023-04-06T06:51:48;94092.78;;;14.35;27.10
70902;BME280;58548;47.210;8.618;2023-04-06T06:54:16;94276.03;;;16.37;25.97
70902;BME280;58548;47.210;8.618;2023-04-06T06:56:42;94202.59;;;16.71;24.74
70902;BME280;58548;47.210;8.618;2023-04-06T06:59:08;94238.22;;;17.71;24.27
70902;BME280;58548;47.210;8.618;2023-04-06T07:01:36;94271.06;;;18.63;23.14
70902;BME280;58548;47.210;8.618;2023-04-06T07:04:05;94270.03;;;19.22;21.78
70902;BME280;58548;47.210;8.618;2023-04-06T07:06:37;94268.47;;;19.89;21.17
70902;BME280;58548;47.210;8.618;2023-04-06T07:09:03;94177.56;;;19.89;21.02
70902;BME280;58548;47.210;8.618;2023-04-06T07:11:31;94186.59;;;20.60;19.12
70902;BME280;58548;47.210;8.618;2023-04-06T07:13:59;94186.00;;;21.07;18.28
70902;BME280;58548;47.210;8.618;2023-04-06T07:16:25;94258.75;;;22.09;18.19
70902;BME280;58548;47.210;8.618;2023-04-06T07:18:55;94195.22;;;22.13;17.94
70902;BME280;58548;47.210;8.618;2023-04-06T07:21:22;94228.22;;;22.86;17.52
70902;BME280;58548;47.210;8.618;2023-04-06T07:23:48;94259.19;;;23.54;16.67
70902;BME280;58548;47.210;8.618;2023-04-06T07:26:14;94201.38;;;23.60;15.90
70902;BME280;58548;47.210;8.618;2023-04-06T07:28:40;94285.72;;;24.58;15.72
70902;BME280;58548;47.210;8.618;2023-04-06T07:31:06;94205.91;;;24.51;15.51
70902;BME280;58548;47.210;8.618;2023-04-06T07:33:32;94196.94;;;24.87;14.72
70902;BME280;58548;47.210;8.618;2023-04-06T07:35:58;94224.38;;;25.42;14.88
70902;BME280;58548;47.210;8.618;2023-04-06T07:38:24;94193.16;;;25.67;14.01
70902;BME280;58548;47.210;8.618;2023-04-06T07:40:50;94260.81;;;26.51;13.32
70902;BME280;58548;47.210;8.618;2023-04-06T07:43:21;94256.97;;;26.82;13.07
70902;BME280;58548;47.210;8.618;2023-04-06T07:45:50;94249.97;;;27.05;12.65
70902;BME280;58548;47.210;8.618;2023-04-06T07:48:16;94294.13;;;27.51;12.49
70902;BME280;58548;47.210;8.618;2023-04-06T07:50:44;94257.97;;;27.48;11.85
70902;BME280;58548;47.210;8.618;2023-04-06T07:53:12;94213.47;;;27.47;11.72
70902;BME280;58548;47.210;8.618;2023-04-06T07:55:38;94289.72;;;28.07;11.54
70902;BME280;58548;47.210;8.618;2023-04-06T07:58:03;94207.16;;;27.71;11.37
70902;BME280;58548;47.210;8.618;2023-04-06T08:00:30;94230.50;;;28.18;11.70
70902;BME280;58548;47.210;8.618;2023-04-06T08:02:56;94207.75;;;28.29;11.20
70902;BME280;58548;47.210;8.618;2023-04-06T08:05:26;94189.13;;;28.47;11.57
70902;BME280;58548;47.210;8.618;2023-04-06T08:07:55;94302.97;;;29.29;10.80
70902;BME280;58548;47.210;8.618;2023-04-06T08:10:24;94303.03;;;29.52;10.80
70902;BME280;58548;47.210;8.618;2023-04-06T08:12:52;94233.13;;;29.38;11.00
70902;BME280;58548;47.210;8.618;2023-04-06T08:15:20;94235.84;;;29.61;10.57
70902;BME280;58548;47.210;8.618;2023-04-06T08:17:48;94310.69;;;30.27;10.72
70902;BME280;58548;47.210;8.618;2023-04-06T08:20:16;94298.13;;;30.54;10.62
70902;BME280;58548;47.210;8.618;2023-04-06T08:22:44;94218.97;;;30.32;10.02
70902;BME280;58548;47.210;8.618;2023-04-06T08:25:13;94285.75;;;31.02;9.65
70902;BME280;58548;47.210;8.618;2023-04-06T08:27:38;94277.72;;;31.20;9.80
70902;BME280;58548;47.210;8.618;2023-04-06T08:30:05;94284.88;;;31.51;9.33
70902;BME280;58548;47.210;8.618;2023-04-06T08:32:33;94220.91;;;31.25;8.93
70902;BME280;58548;47.210;8.618;2023-04-06T08:35:01;94241.06;;;31.54;8.87
70902;BME280;58548;47.210;8.618;2023-04-06T08:37:28;94291.19;;;32.08;8.50
70902;BME280;58548;47.210;8.618;2023-04-06T08:39:54;94301.00;;;32.21;8.68
70902;BME280;58548;47.210;8.618;2023-04-06T08:42:25;94300.34;;;32.24;8.01
70902;BME280;58548;47.210;8.618;2023-04-06T08:44:56;94228.00;;;31.91;8.22
70902;BME280;58548;47.210;8.618;2023-04-06T08:47:22;94290.75;;;32.53;8.17
70902;BME280;58548;47.210;8.618;2023-04-06T08:49:49;94228.34;;;32.37;8.14
70902;BME280;58548;47.210;8.618;2023-04-06T08:52:18;94296.59;;;33.03;8.22
70902;BME280;58548;47.210;8.618;2023-04-06T08:54:47;94232.13;;;32.75;7.91
70902;BME280;58548;47.210;8.618;2023-04-06T08:57:13;94297.41;;;33.25;7.46
70902;BME280;58548;47.210;8.618;2023-04-06T08:59:43;94297.53;;;33.28;7.68
70902;BME280;58548;47.210;8.618;2023-04-06T09:02:18;94223.91;;;32.92;7.06
70902;BME280;58548;47.210;8.618;2023-04-06T09:04:47;94293.84;;;33.54;6.71
70902;BME280;58548;47.210;8.618;2023-04-06T09:07:15;94236.38;;;33.06;7.24
70902;BME280;58548;47.210;8.618;2023-04-06T09:09:46;94211.13;;;33.02;6.60
70902;BME280;58548;47.210;8.618;2023-04-06T09:12:24;94292.41;;;33.57;6.48
70902;BME280;58548;47.210;8.618;2023-04-06T09:14:50;94291.66;;;33.68;6.64
70902;BME280;58548;47.210;8.618;2023-04-06T09:17:21;94289.22;;;33.55;6.43
70902;BME280;58548;47.210;8.618;2023-04-06T09:19:47;94292.13;;;33.49;6.61
70902;BME280;58548;47.210;8.618;2023-04-06T09:22:16;94259.09;;;33.35;6.87
70902;BME280;58548;47.210;8.618;2023-04-06T09:27:09;94265.88;;;33.50;6.30
70902;BME280;58548;47.210;8.618;2023-04-06T09:29:35;94200.84;;;33.16;6.96
70902;BME280;58548;47.210;8.618;2023-04-06T09:32:07;94264.78;;;33.63;6.54
70902;BME280;58548;47.210;8.618;2023-04-06T09:34:37;94248.97;;;33.53;6.73
70902;BME280;58548;47.210;8.618;2023-04-06T09:37:18;94283.25;;;33.82;6.62
70902;BME280;58548;47.210;8.618;2023-04-06T09:39:45;94283.91;;;33.79;6.51
70902;BME280;58548;47.210;8.618;2023-04-06T09:42:23;94276.91;;;33.78;6.33
70902;BME280;58548;47.210;8.618;2023-04-06T09:44:50;94202.75;;;33.37;6.96
70902;BME280;58548;47.210;8.618;2023-04-06T09:47:16;94284.34;;;34.03;6.70
70902;BME280;58548;47.210;8.618;2023-04-06T09:49:45;94274.13;;;34.08;6.32
70902;BME280;58548;47.210;8.618;2023-04-06T09:52:14;94280.78;;;34.23;6.37
70902;BME280;58548;47.210;8.618;2023-04-06T09:54:42;94192.50;;;33.76;6.36
70902;BME280;58548;47.210;8.618;2023-04-06T10:00:03;94278.78;;;34.33;5.78
70902;BME280;58548;47.210;8.618;2023-04-06T10:03:04;94273.75;;;34.43;5.48
70902;BME280;58548;47.210;8.618;2023-04-06T10:08:13;94193.50;;;34.05;5.57
70902;BME280;58548;47.210;8.618;2023-04-06T10:10:43;94269.56;;;34.58;5.31
70902;BME280;58548;47.210;8.618;2023-04-06T10:13:12;94272.16;;;34.55;5.92
70902;BME280;58548;47.210;8.618;2023-04-06T10:15:41;94276.91;;;34.46;6.11
70902;BME280;58548;47.210;8.618;2023-04-06T10:18:10;94200.06;;;33.83;5.54
70902;BME280;58548;47.210;8.618;2023-04-06T10:26:20;94271.81;;;34.69;6.11
70902;BME280;58548;47.210;8.618;2023-04-06T10:28:47;94279.75;;;34.74;6.61
70902;BME280;58548;47.210;8.618;2023-04-06T10:31:14;94200.53;;;34.31;6.18
70902;BME280;58548;47.210;8.618;2023-04-06T10:33:52;94210.50;;;34.52;6.52
70902;BME280;58548;47.210;8.618;2023-04-06T10:36:24;94273.41;;;35.07;5.56
70902;BME280;58548;47.210;8.618;2023-04-06T10:38:57;94206.28;;;34.67;6.35
70902;BME280;58548;47.210;8.618;2023-04-06T10:41:32;94279.50;;;35.16;6.27
70902;BME280;58548;47.210;8.618;2023-04-06T10:44:01;94192.06;;;34.57;5.61
70902;BME280;58548;47.210;8.618;2023-04-06T10:46:29;94262.13;;;35.05;5.98
70902;BME280;58548;47.210;8.618;2023-04-06T10:49:08;94266.19;;;34.99;5.74
70902;BME280;58548;47.210;8.618;2023-04-06T10:51:38;94192.06;;;34.57;5.93
70902;BME280;58548;47.210;8.618;2023-04-06T10:54:07;94275.91;;;35.00;5.91
70902;BME280;58548;47.210;8.618;2023-04-06T10:56:37;94206.84;;;34.60;6.21
70902;BME280;58548;47.210;8.618;2023-04-06T10:59:05;94252.38;;;34.79;6.56
70902;BME280;58548;47.210;8.618;2023-04-06T11:01:31;94255.69;;;34.72;6.20
70902;BME280;58548;47.210;8.618;2023-04-06T11:03:57;94247.53;;;34.60;6.40
70902;BME280;58548;47.210;8.618;2023-04-06T11:06:28;94271.25;;;34.76;5.44
70902;BME280;58548;47.210;8.618;2023-04-06T11:08:58;94266.06;;;34.70;6.61
70902;BME280;58548;47.210;8.618;2023-04-06T11:11:27;94271.25;;;34.63;6.23
70902;BME280;58548;47.210;8.618;2023-04-06T11:16:26;94226.47;;;34.20;6.20
70902;BME280;58548;47.210;8.618;2023-04-06T11:18:57;94258.31;;;34.23;7.02
70902;BME280;58548;47.210;8.618;2023-04-06T11:21:34;94261.69;;;34.20;6.59
70902;BME280;58548;47.210;8.618;2023-04-06T11:24:12;94176.66;;;33.53;6.50
70902;BME280;58548;47.210;8.618;2023-04-06T11:26:48;94233.31;;;33.71;5.98
70902;BME280;58548;47.210;8.618;2023-04-06T11:29:19;94167.50;;;33.25;6.60
70902;BME280;58548;47.210;8.618;2023-04-06T11:32:04;94247.78;;;33.42;6.98
70902;BME280;58548;47.210;8.618;2023-04-06T11:34:36;94253.94;;;33.21;7.02
70902;BME280;58548;47.210;8.618;2023-04-06T11:37:10;94243.13;;;33.00;7.24
70902;BME280;58548;47.210;8.618;2023-04-06T11:39:54;94138.44;;;32.19;8.01
70902;BME280;58548;47.210;8.618;2023-04-06T11:42:29;94162.19;;;32.43;7.80
70902;BME280;58548;47.210;8.618;2023-04-06T11:44:57;94229.72;;;33.03;8.04
70902;BME280;58548;47.210;8.618;2023-04-06T11:47:37;94152.72;;;32.58;7.69
70902;BME280;58548;47.210;8.618;2023-04-06T11:50:09;94148.91;;;32.59;7.88
70902;BME280;58548;47.210;8.618;2023-04-06T11:52:35;94249.19;;;33.18;7.73
70902;BME280;58548;47.210;8.618;2023-04-06T11:55:15;94225.25;;;33.07;7.99
70902;BME280;58548;47.210;8.618;2023-04-06T11:57:42;94235.81;;;33.21;7.46
70902;BME280;58548;47.210;8.618;2023-04-06T12:00:09;94127.78;;;32.74;7.03
70902;BME280;58548;47.210;8.618;2023-04-06T12:02:48;94132.63;;;32.89;7.79
70902;BME280;58548;47.210;8.618;2023-04-06T12:05:14;94154.03;;;33.16;7.67
70902;BME280;58548;47.210;8.618;2023-04-06T12:07:40;94139.94;;;33.10;7.11
70902;BME280;58548;47.210;8.618;2023-04-06T12:10:06;94197.06;;;33.30;6.73
70902;BME280;58548;47.210;8.618;2023-04-06T12:12:32;94211.72;;;33.29;6.71
70902;BME280;58548;47.210;8.618;2023-04-06T12:15:00;94143.34;;;32.56;7.02
70902;BME280;58548;47.210;8.618;2023-04-06T12:17:26;94159.34;;;32.40;6.70
70902;BME280;58548;47.210;8.618;2023-04-06T12:19:52;94133.03;;;31.89;6.88
70902;BME280;58548;47.210;8.618;2023-04-06T12:22:18;94215.44;;;31.95;7.13
70902;BME280;58548;47.210;8.618;2023-04-06T12:24:46;94135.06;;;31.09;7.81
70902;BME280;58548;47.210;8.618;2023-04-06T12:27:12;94121.59;;;31.01;7.96
70902;BME280;58548;47.210;8.618;2023-04-06T12:29:43;94189.94;;;31.49;8.01
70902;BME280;58548;47.210;8.618;2023-04-06T12:32:11;94208.22;;;31.34;8.20
70902;BME280;58548;47.210;8.618;2023-04-06T12:34:38;94207.56;;;31.37;8.19
70902;BME280;58548;47.210;8.618;2023-04-06T12:37:06;94113.34;;;30.79;8.90
70902;BME280;58548;47.210;8.618;2023-04-06T12:39:34;94159.63;;;31.08;8.66
70902;BME280;58548;47.210;8.618;2023-04-06T12:42:01;94202.97;;;31.47;8.53
70902;BME280;58548;47.210;8.618;2023-04-06T12:44:30;94063.06;;;30.39;8.10
70902;BME280;58548;47.210;8.618;2023-04-06T12:46:56;94107.00;;;30.58;7.81
70902;BME280;58548;47.210;8.618;2023-04-06T12:49:22;94178.50;;;30.81;8.44
70902;BME280;58548;47.210;8.618;2023-04-06T12:51:48;94138.13;;;30.23;8.75
70902;BME280;58548;47.210;8.618;2023-04-06T12:54:16;94195.22;;;30.43;9.04
70902;BME280;58548;47.210;8.618;2023-04-06T12:56:42;94198.00;;;30.20;9.01
70902;BME280;58548;47.210;8.618;2023-04-06T12:59:10;94099.47;;;29.39;8.81
70902;BME280;58548;47.210;8.618;2023-04-06T13:01:38;94158.19;;;29.45;9.18
70902;BME280;58548;47.210;8.618;2023-04-06T13:04:04;94175.66;;;29.34;10.13
70902;BME280;58548;47.210;8.618;2023-04-06T13:06:33;94164.09;;;29.11;9.49
70902;BME280;58548;47.210;8.618;2023-04-06T13:08:59;94173.66;;;29.17;9.50
70902;BME280;58548;47.210;8.618;2023-04-06T13:11:26;94191.72;;;29.25;9.28
70902;BME280;58548;47.210;8.618;2023-04-06T13:13:53;94170.09;;;29.08;9.86
70902;BME280;58548;47.210;8.618;2023-04-06T13:16:19;94124.97;;;28.82;9.72
70902;BME280;58548;47.210;8.618;2023-04-06T13:18:47;94088.81;;;28.51;9.89
70902;BME280;58548;47.210;8.618;2023-04-06T13:21:14;94149.44;;;28.94;9.86
70902;BME280;58548;47.210;8.618;2023-04-06T13:23:41;94163.66;;;28.95;9.55
70902;BME280;58548;47.210;8.618;2023-04-06T13:26:07;94091.97;;;28.67;9.66
70902;BME280;58548;47.210;8.618;2023-04-06T13:28:36;94098.31;;;28.71;9.36
70902;BME280;58548;47.210;8.618;2023-04-06T13:31:04;94108.03;;;28.95;9.67